sensor_id;sensor_type;location;lat;lon;timestamp;pressure;altitude;pressure_sealevel;temperature;humidity
56142;BME280;42018;48.588;10.836;2023-03-03T00:03:31;96917.91;;;1.95;72.35
56142;BME280;42018;48.588;10.836;2023-03-03T00:06:27;96919.28;;;2.04;72.17
56142;BME280;42018;48.588;10.836;2023-03-03T00:26:00;96924.56;;;1.91;71.06
56142;BME280;42018;48.588;10.836;2023-03-03T00:32:30;96934.06;;;1.46;73.22
56142;BME280;42018;48.588;10.836;2023-03-03T00:35:24;96925.59;;;1.70;71.79
56142;BME280;42018;48.588;10.836;2023-03-03T02:10:44;96914.56;;;1.75;71.58
56142;BME280;42018;48.588;10.836;2023-03-03T02:27:30;96913.41;;;1.44;73.41
56142;BME280;42018;48.588;10.836;2023-03-03T02:30:20;96911.59;;;1.38;73.64
56142;BME280;42018;48.588;10.836;2023-03-03T05:54:24;96953.44;;;2.61;70.74
56142;BME280;42018;48.588;10.836;2023-03-03T06:03:57;96957.41;;;2.70;70.49
56142;BME280;42018;48.588;10.836;2023-03-03T06:13:39;96972.28;;;2.31;72.01
56142;BME280;42018;48.588;10.836;2023-03-03T06:16:26;96979.09;;;2.39;72.07
56142;BME280;42018;48.588;10.836;2023-03-03T06:22:37;96975.75;;;2.12;73.74
56142;BME280;42018;48.588;10.836;2023-03-03T06:25:29;96975.75;;;2.19;73.93
56142;BME280;42018;48.588;10.836;2023-03-03T06:28:15;96976.69;;;2.31;73.12
56142;BME280;42018;48.588;10.836;2023-03-03T06:44:35;96986.91;;;2.46;73.51
56142;BME280;42018;48.588;10.836;2023-03-03T06:47:34;96988.69;;;2.45;73.89
56142;BME280;42018;48.588;10.836;2023-03-03T06:50:20;96999.53;;;2.55;73.17
56142;BME280;42018;48.588;10.836;2023-03-03T07:06:51;97015.03;;;2.57;75.36
56142;BME280;42018;48.588;10.836;2023-03-03T07:09:36;97017.44;;;2.58;74.52
56142;BME280;42018;48.588;10.836;2023-03-03T07:12:23;97008.38;;;2.61;74.96
56142;BME280;42018;48.588;10.836;2023-03-03T07:15:21;97013.38;;;2.69;74.43
56142;BME280;42018;48.588;10.836;2023-03-03T07:18:16;97011.75;;;2.68;75.45
56142;BME280;42018;48.588;10.836;2023-03-03T07:29:47;97024.44;;;2.71;74.98
56142;BME280;42018;48.588;10.836;2023-03-03T07:32:42;97029.03;;;2.76;73.66
56142;BME280;42018;48.588;10.836;2023-03-03T07:41:16;97020.81;;;2.66;76.41
56142;BME280;42018;48.588;10.836;2023-03-03T07:44:17;97023.00;;;2.75;76.71
56142;BME280;42018;48.588;10.836;2023-03-03T07:50:15;97030.97;;;2.94;74.21
56142;BME280;42018;48.588;10.836;2023-03-03T07:53:02;97045.44;;;2.96;74.35
56142;BME280;42018;48.588;10.836;2023-03-03T07:55:50;97042.47;;;2.86;76.42
56142;BME280;42018;48.588;10.836;2023-03-03T07:58:36;97043.09;;;2.81;77.14
56142;BME280;42018;48.588;10.836;2023-03-03T08:07:02;97038.41;;;2.97;75.61
56142;BME280;42018;48.588;10.836;2023-03-03T08:12:37;97035.47;;;3.18;74.14
56142;BME280;42018;48.588;10.836;2023-03-03T08:15:24;97034.25;;;3.21;74.46
56142;BME280;42018;48.588;10.836;2023-03-03T08:21:34;97036.06;;;3.20;75.44
56142;BME280;42018;48.588;10.836;2023-03-03T08:24:20;97036.66;;;3.16;74.32
56142;BME280;42018;48.588;10.836;2023-03-03T08:27:05;97039.94;;;3.11;74.86
56142;BME280;42018;48.588;10.836;2023-03-03T08:29:51;97046.72;;;3.19;75.13
56142;BME280;42018;48.588;10.836;2023-03-03T08:32:36;97046.34;;;3.15;75.25
56142;BME280;42018;48.588;10.836;2023-03-03T08:35:21;97043.31;;;3.18;74.86
56142;BME280;42018;48.588;10.836;2023-03-03T08:38:07;97043.66;;;3.28;74.52
56142;BME280;42018;48.588;10.836;2023-03-03T08:40:53;97047.19;;;3.41;74.56
56142;BME280;42018;48.588;10.836;2023-03-03T08:43:38;97045.50;;;3.53;73.31
56142;BME280;42018;48.588;10.836;2023-03-03T08:46:23;97046.50;;;3.52;73.50
56142;BME280;42018;48.588;10.836;2023-03-03T08:49:11;97050.16;;;3.51;72.69
56142;BME280;42018;48.588;10.836;2023-03-03T08:51:57;97056.69;;;3.42;71.39
56142;BME280;42018;48.588;10.836;2023-03-03T08:54:43;97052.84;;;3.38;70.77
56142;BME280;42018;48.588;10.836;2023-03-03T08:57:28;97055.19;;;3.52;70.09
56142;BME280;42018;48.588;10.836;2023-03-03T09:00:14;97062.13;;;3.65;70.36
56142;BME280;42018;48.588;10.836;2023-03-03T09:03:00;97064.06;;;3.76;69.80
56142;BME280;42018;48.588;10.836;2023-03-03T09:05:45;97068.41;;;3.89;69.10
56142;BME280;42018;48.588;10.836;2023-03-03T09:08:31;97061.88;;;3.73;68.88
56142;BME280;42018;48.588;10.836;2023-03-03T09:11:24;97070.94;;;3.77;68.41
56142;BME280;42018;48.588;10.836;2023-03-03T09:14:11;97069.69;;;3.80;68.54
56142;BME280;42018;48.588;10.836;2023-03-03T09:16:56;97065.38;;;3.92;68.19
56142;BME280;42018;48.588;10.836;2023-03-03T09:19:42;97084.72;;;3.91;68.05
56142;BME280;42018;48.588;10.836;2023-03-03T09:22:27;97086.44;;;4.04;67.15
56142;BME280;42018;48.588;10.836;2023-03-03T09:25:26;97078.88;;;4.14;66.16
56142;BME280;42018;48.588;10.836;2023-03-03T09:37:22;97093.19;;;4.37;64.26
56142;BME280;42018;48.588;10.836;2023-03-03T09:40:18;97093.50;;;4.47;64.58
56142;BME280;42018;48.588;10.836;2023-03-03T09:58:52;97110.78;;;4.54;64.05
56142;BME280;42018;48.588;10.836;2023-03-03T10:01:24;97114.50;;;4.65;63.89
56142;BME280;42018;48.588;10.836;2023-03-03T10:07:11;97112.31;;;4.99;64.27
56142;BME280;42018;48.588;10.836;2023-03-03T10:16:18;97113.19;;;5.71;61.66
56142;BME280;42018;48.588;10.836;2023-03-03T10:19:16;97098.69;;;5.81;60.81
56142;BME280;42018;48.588;10.836;2023-03-03T10:22:19;97108.25;;;5.63;61.28
56142;BME280;42018;48.588;10.836;2023-03-03T10:25:13;97109.16;;;5.99;60.37
56142;BME280;42018;48.588;10.836;2023-03-03T10:31:22;97104.50;;;6.13;60.43
56142;BME280;42018;48.588;10.836;2023-03-03T10:43:24;97116.13;;;5.63;61.03
56142;BME280;42018;48.588;10.836;2023-03-03T10:54:29;97099.00;;;6.50;56.40
56142;BME280;42018;48.588;10.836;2023-03-03T11:09:13;97083.06;;;6.80;56.13
56142;BME280;42018;48.588;10.836;2023-03-03T11:14:53;97091.47;;;7.34;54.69
56142;BME280;42018;48.588;10.836;2023-03-03T11:17:51;97091.59;;;7.56;53.84
56142;BME280;42018;48.588;10.836;2023-03-03T11:20:41;97082.78;;;7.50;54.30
56142;BME280;42018;48.588;10.836;2023-03-03T11:32:25;97084.22;;;8.20;55.08
56142;BME280;42018;48.588;10.836;2023-03-03T11:35:31;97079.34;;;8.68;52.20
56142;BME280;42018;48.588;10.836;2023-03-03T11:41:40;97071.72;;;9.37;50.50
56142;BME280;42018;48.588;10.836;2023-03-03T11:53:00;97060.16;;;9.43;49.49
56142;BME280;42018;48.588;10.836;2023-03-03T11:55:54;97053.25;;;9.42;49.10
56142;BME280;42018;48.588;10.836;2023-03-03T11:58:42;97046.28;;;9.95;47.48
56142;BME280;42018;48.588;10.836;2023-03-03T12:04:28;97059.53;;;10.27;45.47
56142;BME280;42018;48.588;10.836;2023-03-03T12:07:23;97058.41;;;10.23;45.83
56142;BME280;42018;48.588;10.836;2023-03-03T12:10:27;97046.63;;;10.36;45.36
56142;BME280;42018;48.588;10.836;2023-03-03T12:48:17;97030.94;;;10.87;45.16
56142;BME280;42018;48.588;10.836;2023-03-03T12:57:15;97017.66;;;10.77;44.92
56142;BME280;42018;48.588;10.836;2023-03-03T13:08:56;97006.88;;;10.36;46.40
56142;BME280;42018;48.588;10.836;2023-03-03T13:20:21;97006.13;;;11.19;44.45
56142;BME280;42018;48.588;10.836;2023-03-03T13:23:12;97002.72;;;11.44;44.41
56142;BME280;42018;48.588;10.836;2023-03-03T13:26:02;97001.13;;;11.33;43.54
56142;BME280;42018;48.588;10.836;2023-03-03T13:31:56;96996.63;;;11.84;42.52
56142;BME280;42018;48.588;10.836;2023-03-03T13:34:50;96997.16;;;11.71;42.79
56142;BME280;42018;48.588;10.836;2023-03-03T13:37:42;96996.38;;;11.86;43.21
56142;BME280;42018;48.588;10.836;2023-03-03T13:40:45;96996.88;;;12.08;42.68
56142;BME280;42018;48.588;10.836;2023-03-03T13:43:42;96995.03;;;12.04;42.03
56142;BME280;42018;48.588;10.836;2023-03-03T13:52:15;96986.53;;;11.81;42.42
56142;BME280;42018;48.588;10.836;2023-03-03T13:58:23;96979.59;;;12.26;41.40
56142;BME280;42018;48.588;10.836;2023-03-03T14:04:28;96975.31;;;12.30;41.31
56142;BME280;42018;48.588;10.836;2023-03-03T14:07:20;96973.75;;;12.24;41.33
56142;BME280;42018;48.588;10.836;2023-03-03T14:13:12;96960.53;;;11.58;43.00
56142;BME280;42018;48.588;10.836;2023-03-03T14:16:08;96964.22;;;11.16;43.80
56142;BME280;42018;48.588;10.836;2023-03-03T14:19:00;96964.88;;;10.70;43.91
56142;BME280;42018;48.588;10.836;2023-03-03T14:24:32;96967.13;;;11.14;44.25
56142;BME280;42018;48.588;10.836;2023-03-03T14:27:52;96963.22;;;10.44;45.04
56142;BME280;42018;48.588;10.836;2023-03-03T14:30:39;96959.31;;;10.62;44.98
56142;BME280;42018;48.588;10.836;2023-03-03T14:33:25;96958.94;;;11.26;44.14
56142;BME280;42018;48.588;10.836;2023-03-03T14:36:12;96956.00;;;11.38;43.93
56142;BME280;42018;48.588;10.836;2023-03-03T14:38:57;96964.50;;;11.45;43.91
56142;BME280;42018;48.588;10.836;2023-03-03T14:41:43;96963.19;;;11.47;43.28
56142;BME280;42018;48.588;10.836;2023-03-03T14:44:29;96962.13;;;11.54;42.85
56142;BME280;42018;48.588;10.836;2023-03-03T14:47:26;96961.31;;;11.68;43.09
56142;BME280;42018;48.588;10.836;2023-03-03T14:56:21;96961.91;;;10.46;46.02
56142;BME280;42018;48.588;10.836;2023-03-03T15:02:42;96957.72;;;10.61;45.94
56142;BME280;42018;48.588;10.836;2023-03-03T15:10:47;96959.16;;;11.04;44.58
56142;BME280;42018;48.588;10.836;2023-03-03T15:13:34;96949.09;;;11.16;44.83
56142;BME280;42018;48.588;10.836;2023-03-03T15:16:23;96957.03;;;11.01;45.11
56142;BME280;42018;48.588;10.836;2023-03-03T15:19:19;96954.84;;;10.72;45.28
56142;BME280;42018;48.588;10.836;2023-03-03T15:25:00;96947.22;;;11.01;45.83
56142;BME280;42018;48.588;10.836;2023-03-03T15:28:34;96947.38;;;10.54;46.27
56142;BME280;42018;48.588;10.836;2023-03-03T15:30:55;96952.47;;;10.71;46.30
56142;BME280;42018;48.588;10.836;2023-03-03T15:33:46;96954.81;;;10.62;45.66
56142;BME280;42018;48.588;10.836;2023-03-03T15:48:25;96942.88;;;10.60;46.64
56142;BME280;42018;48.588;10.836;2023-03-03T16:00:02;96949.19;;;10.48;46.97
56142;BME280;42018;48.588;10.836;2023-03-03T16:02:57;96949.66;;;10.35;47.17
56142;BME280;42018;48.588;10.836;2023-03-03T16:05:52;96957.88;;;10.39;47.97
56142;BME280;42018;48.588;10.836;2023-03-03T16:11:32;96954.44;;;9.96;48.08
56142;BME280;42018;48.588;10.836;2023-03-03T16:17:38;96958.78;;;9.70;48.39
56142;BME280;42018;48.588;10.836;2023-03-03T16:20:36;96955.94;;;9.44;49.44
56142;BME280;42018;48.588;10.836;2023-03-03T16:23:29;96970.47;;;9.42;49.30
56142;BME280;42018;48.588;10.836;2023-03-03T16:31:56;96982.75;;;9.26;49.95
56142;BME280;42018;48.588;10.836;2023-03-03T16:40:38;96993.34;;;9.26;50.58
56142;BME280;42018;48.588;10.836;2023-03-03T16:43:40;96995.97;;;9.26;50.45
56142;BME280;42018;48.588;10.836;2023-03-03T16:46:39;97002.75;;;9.17;50.85
56142;BME280;42018;48.588;10.836;2023-03-03T16:52:12;97001.50;;;8.97;51.45
56142;BME280;42018;48.588;10.836;2023-03-03T16:55:04;97000.34;;;8.88;51.77
56142;BME280;42018;48.588;10.836;2023-03-03T16:57:59;97000.97;;;8.73;52.44
56142;BME280;42018;48.588;10.836;2023-03-03T17:00:54;97014.66;;;8.70;52.73
56142;BME280;42018;48.588;10.836;2023-03-03T17:03:47;97008.63;;;8.75;53.15
56142;BME280;42018;48.588;10.836;2023-03-03T17:15:22;97030.16;;;8.06;55.34
56142;BME280;42018;48.588;10.836;2023-03-03T17:20:59;97040.06;;;7.48;57.52
56142;BME280;42018;48.588;10.836;2023-03-03T17:23:54;97040.53;;;7.45;56.84
56142;BME280;42018;48.588;10.836;2023-03-03T17:26:52;97038.03;;;7.38;57.46
56142;BME280;42018;48.588;10.836;2023-03-03T17:35:46;97052.88;;;7.28;57.33
56142;BME280;42018;48.588;10.836;2023-03-03T17:41:39;97057.63;;;7.14;57.54
56142;BME280;42018;48.588;10.836;2023-03-03T17:47:12;97061.06;;;7.14;57.55
56142;BME280;42018;48.588;10.836;2023-03-03T17:50:03;97066.31;;;7.14;57.65
56142;BME280;42018;48.588;10.836;2023-03-03T18:22:44;97090.06;;;6.51;59.48
56142;BME280;42018;48.588;10.836;2023-03-03T18:26:04;97090.75;;;6.46;59.37
56142;BME280;42018;48.588;10.836;2023-03-03T18:28:43;97090.41;;;6.42;59.06
56142;BME280;42018;48.588;10.836;2023-03-03T18:31:30;97099.47;;;6.35;58.41
56142;BME280;42018;48.588;10.836;2023-03-03T18:42:54;97110.88;;;6.29;58.72
56142;BME280;42018;48.588;10.836;2023-03-03T18:54:24;97124.72;;;6.36;58.68
56142;BME280;42018;48.588;10.836;2023-03-03T18:57:17;97128.75;;;6.38;58.34
56142;BME280;42018;48.588;10.836;2023-03-03T19:00:21;97133.56;;;6.30;57.98
56142;BME280;42018;48.588;10.836;2023-03-03T19:03:07;97135.72;;;6.09;58.42
56142;BME280;42018;48.588;10.836;2023-03-03T19:06:07;97126.19;;;6.08;58.64
56142;BME280;42018;48.588;10.836;2023-03-03T19:08:54;97126.31;;;6.13;58.71
56142;BME280;42018;48.588;10.836;2023-03-03T19:11:48;97140.72;;;6.11;58.96
56142;BME280;42018;48.588;10.836;2023-03-03T19:14:35;97138.69;;;6.13;57.94
56142;BME280;42018;48.588;10.836;2023-03-03T19:20:11;97148.50;;;5.75;59.00
56142;BME280;42018;48.588;10.836;2023-03-03T19:23:13;97146.78;;;5.69;59.36
56142;BME280;42018;48.588;10.836;2023-03-03T19:26:18;97150.28;;;5.51;59.60
56142;BME280;42018;48.588;10.836;2023-03-03T19:37:54;97152.81;;;5.40;59.82
56142;BME280;42018;48.588;10.836;2023-03-03T20:00:40;97163.50;;;4.90;60.66
56142;BME280;42018;48.588;10.836;2023-03-03T20:09:34;97177.09;;;5.23;59.42
56142;BME280;42018;48.588;10.836;2023-03-03T20:15:15;97175.41;;;4.92;59.25
56142;BME280;42018;48.588;10.836;2023-03-03T20:18:51;97175.16;;;4.75;60.22
56142;BME280;42018;48.588;10.836;2023-03-03T20:27:17;97175.84;;;4.89;61.01
56142;BME280;42018;48.588;10.836;2023-03-03T20:38:46;97176.97;;;4.56;60.82
56142;BME280;42018;48.588;10.836;2023-03-03T20:41:48;97169.28;;;4.55;60.75
56142;BME280;42018;48.588;10.836;2023-03-03T20:56:53;97179.78;;;4.55;60.59
56142;BME280;42018;48.588;10.836;2023-03-03T21:03:02;97180.38;;;4.57;61.20
56142;BME280;42018;48.588;10.836;2023-03-03T21:06:06;97183.06;;;4.50;60.87
56142;BME280;42018;48.588;10.836;2023-03-03T21:08:53;97190.25;;;4.37;60.51
56142;BME280;42018;48.588;10.836;2023-03-03T21:11:40;97196.28;;;4.12;61.30
56142;BME280;42018;48.588;10.836;2023-03-03T21:17:28;97190.28;;;4.05;61.28
56142;BME280;42018;48.588;10.836;2023-03-03T21:23:02;97197.66;;;3.90;60.88
56142;BME280;42018;48.588;10.836;2023-03-03T21:28:33;97194.94;;;3.71;61.68
56142;BME280;42018;48.588;10.836;2023-03-03T21:31:18;97196.53;;;3.72;61.11
56142;BME280;42018;48.588;10.836;2023-03-03T21:34:03;97200.19;;;3.65;61.91
56142;BME280;42018;48.588;10.836;2023-03-03T21:37:02;97195.28;;;3.43;62.19
56142;BME280;42018;48.588;10.836;2023-03-03T21:40:09;97186.66;;;3.29;62.99
56142;BME280;42018;48.588;10.836;2023-03-03T21:42:54;97195.94;;;3.32;62.10
56142;BME280;42018;48.588;10.836;2023-03-03T21:45:40;97202.41;;;3.16;62.10
56142;BME280;42018;48.588;10.836;2023-03-03T21:48:26;97194.47;;;2.78;62.88
56142;BME280;42018;48.588;10.836;2023-03-03T21:51:13;97199.72;;;2.71;64.03
56142;BME280;42018;48.588;10.836;2023-03-03T21:53:59;97200.13;;;2.55;63.86
56142;BME280;42018;48.588;10.836;2023-03-03T21:56:44;97200.53;;;2.45;64.40
56142;BME280;42018;48.588;10.836;2023-03-03T21:59:31;97205.53;;;2.67;64.06
56142;BME280;42018;48.588;10.836;2023-03-03T22:02:17;97196.25;;;2.84;64.10
56142;BME280;42018;48.588;10.836;2023-03-03T22:05:02;97203.06;;;3.05;63.40
56142;BME280;42018;48.588;10.836;2023-03-03T22:07:48;97196.47;;;2.89;63.06
56142;BME280;42018;48.588;10.836;2023-03-03T22:10:33;97201.69;;;2.96;62.97
56142;BME280;42018;48.588;10.836;2023-03-03T22:13:18;97201.63;;;3.02;62.51
56142;BME280;42018;48.588;10.836;2023-03-03T22:16:04;97203.25;;;3.17;62.93
56142;BME280;42018;48.588;10.836;2023-03-03T22:18:51;97204.44;;;3.14;62.34
56142;BME280;42018;48.588;10.836;2023-03-03T22:21:37;97213.72;;;3.17;62.38
56142;BME280;42018;48.588;10.836;2023-03-03T22:24:22;97216.75;;;3.00;62.63
56142;BME280;42018;48.588;10.836;2023-03-03T22:27:08;97205.50;;;3.00;62.50
56142;BME280;42018;48.588;10.836;2023-03-03T22:29:56;97206.69;;;3.04;63.19
56142;BME280;42018;48.588;10.836;2023-03-03T22:32:41;97213.38;;;2.86;62.74
56142;BME280;42018;48.588;10.836;2023-03-03T22:35:26;97210.19;;;2.64;63.72
56142;BME280;42018;48.588;10.836;2023-03-03T22:38:11;97205.28;;;2.95;64.69
56142;BME280;42018;48.588;10.836;2023-03-03T22:40:57;97216.63;;;2.49;64.21
56142;BME280;42018;48.588;10.836;2023-03-03T22:43:42;97215.94;;;1.80;67.20
56142;BME280;42018;48.588;10.836;2023-03-03T22:46:27;97212.75;;;1.78;68.27
56142;BME280;42018;48.588;10.836;2023-03-03T22:49:12;97213.75;;;1.84;68.64
56142;BME280;42018;48.588;10.836;2023-03-03T22:51:57;97214.19;;;2.01;66.14
56142;BME280;42018;48.588;10.836;2023-03-03T22:54:43;97216.34;;;1.77;67.32
56142;BME280;42018;48.588;10.836;2023-03-03T22:57:28;97206.06;;;1.62;69.08
56142;BME280;42018;48.588;10.836;2023-03-03T23:00:14;97210.13;;;1.85;68.21
56142;BME280;42018;48.588;10.836;2023-03-03T23:02:59;97203.28;;;1.64;68.28
56142;BME280;42018;48.588;10.836;2023-03-03T23:05:46;97211.13;;;1.84;67.56
56142;BME280;42018;48.588;10.836;2023-03-03T23:08:31;97208.91;;;1.74;67.78
56142;BME280;42018;48.588;10.836;2023-03-03T23:11:16;97202.03;;;1.60;68.21
56142;BME280;42018;48.588;10.836;2023-03-03T23:14:02;97208.47;;;1.57;69.10
56142;BME280;42018;48.588;10.836;2023-03-03T23:16:47;97204.88;;;1.65;68.29
56142;BME280;42018;48.588;10.836;2023-03-03T23:19:32;97213.56;;;1.79;67.46
56142;BME280;42018;48.588;10.836;2023-03-03T23:22:18;97210.13;;;1.85;67.56
56142;BME280;42018;48.588;10.836;2023-03-03T23:25:03;97210.97;;;1.99;67.37
56142;BME280;42018;48.588;10.836;2023-03-03T23:27:48;97209.78;;;2.14;67.41
56142;BME280;42018;48.588;10.836;2023-03-03T23:30:34;97213.78;;;2.24;66.83
56142;BME280;42018;48.588;10.836;2023-03-03T23:33:19;97219.44;;;2.21;65.09
56142;BME280;42018;48.588;10.836;2023-03-03T23:36:05;97208.94;;;1.87;66.23
56142;BME280;42018;48.588;10.836;2023-03-03T23:38:50;97225.50;;;1.47;67.97
56142;BME280;42018;48.588;10.836;2023-03-03T23:41:35;97220.47;;;1.45;68.71
56142;BME280;42018;48.588;10.836;2023-03-03T23:44:22;97225.34;;;1.07;70.17
56142;BME280;42018;48.588;10.836;2023-03-03T23:47:07;97228.97;;;1.12;69.06
56142;BME280;42018;48.588;10.836;2023-03-03T23:49:53;97226.59;;;1.17;68.69
56142;BME280;42018;48.588;10.836;2023-03-03T23:52:38;97224.97;;;1.16;69.95
56142;BME280;42018;48.588;10.836;2023-03-03T23:55:23;97221.53;;;1.16;67.54
56142;BME280;42018;48.588;10.836;2023-03-03T23:58:09;97223.34;;;1.15;68.12
